sensor_id;sensor_type;location;lat;lon;timestamp;pressure;altitude;pressure_sealevel;temperature;humidity
70338;BME280;57757;53.198;19.646;2022-12-18T00:01:25;101585.38;;;-1.58;72.30
70338;BME280;57757;53.198;19.646;2022-12-18T00:03:54;101582.69;;;-1.61;72.33
70338;BME280;57757;53.198;19.646;2022-12-18T00:06:24;101583.48;;;-1.62;72.20
70338;BME280;57757;53.198;19.646;2022-12-18T00:08:53;101585.84;;;-1.63;72.34
70338;BME280;57757;53.198;19.646;2022-12-18T00:11:23;101584.89;;;-1.61;72.30
70338;BME280;57757;53.198;19.646;2022-12-18T00:13:53;101590.34;;;-1.62;72.27
70338;BME280;57757;53.198;19.646;2022-12-18T00:16:23;101596.94;;;-1.63;72.31
70338;BME280;57757;53.198;19.646;2022-12-18T00:18:54;101595.97;;;-1.65;72.23
70338;BME280;57757;53.198;19.646;2022-12-18T00:21:21;101594.61;;;-1.68;72.16
70338;BME280;57757;53.198;19.646;2022-12-18T00:23:50;101597.48;;;-1.73;72.09
70338;BME280;57757;53.198;19.646;2022-12-18T00:29:04;101603.89;;;-1.81;72.02
70338;BME280;57757;53.198;19.646;2022-12-18T00:31:33;101609.66;;;-1.78;72.15
70338;BME280;57757;53.198;19.646;2022-12-18T00:34:02;101612.95;;;-1.77;72.29
70338;BME280;57757;53.198;19.646;2022-12-18T00:36:32;101616.50;;;-1.74;72.38
70338;BME280;57757;53.198;19.646;2022-12-18T00:39:03;101618.80;;;-1.72;72.41
70338;BME280;57757;53.198;19.646;2022-12-18T00:41:31;101625.10;;;-1.69;72.54
70338;BME280;57757;53.198;19.646;2022-12-18T00:44:17;101629.19;;;-1.66;72.43
70338;BME280;57757;53.198;19.646;2022-12-18T00:46:46;101636.81;;;-1.67;72.30
70338;BME280;57757;53.198;19.646;2022-12-18T00:49:16;101637.02;;;-1.69;72.33
70338;BME280;57757;53.198;19.646;2022-12-18T00:51:44;101640.71;;;-1.71;72.41
70338;BME280;57757;53.198;19.646;2022-12-18T00:54:11;101643.17;;;-1.72;72.38
70338;BME280;57757;53.198;19.646;2022-12-18T00:56:40;101650.67;;;-1.73;72.40
70338;BME280;57757;53.198;19.646;2022-12-18T00:59:16;101658.66;;;-1.73;72.30
70338;BME280;57757;53.198;19.646;2022-12-18T01:01:44;101658.95;;;-1.74;72.38
70338;BME280;57757;53.198;19.646;2022-12-18T01:04:13;101662.79;;;-1.76;72.25
70338;BME280;57757;53.198;19.646;2022-12-18T01:06:41;101663.23;;;-1.77;72.21
70338;BME280;57757;53.198;19.646;2022-12-18T01:09:08;101663.88;;;-1.75;72.26
70338;BME280;57757;53.198;19.646;2022-12-18T01:11:36;101664.84;;;-1.73;72.23
70338;BME280;57757;53.198;19.646;2022-12-18T01:14:04;101667.05;;;-1.72;72.31
70338;BME280;57757;53.198;19.646;2022-12-18T01:16:32;101667.33;;;-1.74;72.35
70338;BME280;57757;53.198;19.646;2022-12-18T01:18:59;101669.96;;;-1.76;72.33
70338;BME280;57757;53.198;19.646;2022-12-18T01:21:27;101670.92;;;-1.77;72.43
70338;BME280;57757;53.198;19.646;2022-12-18T01:23:55;101668.95;;;-1.82;72.25
70338;BME280;57757;53.198;19.646;2022-12-18T01:26:24;101676.69;;;-1.84;72.35
70338;BME280;57757;53.198;19.646;2022-12-18T01:28:55;101682.36;;;-1.87;72.25
70338;BME280;57757;53.198;19.646;2022-12-18T01:31:29;101690.83;;;-1.88;72.31
70338;BME280;57757;53.198;19.646;2022-12-18T01:33:59;101693.11;;;-1.90;72.37
70338;BME280;57757;53.198;19.646;2022-12-18T01:36:30;101697.04;;;-1.90;72.38
70338;BME280;57757;53.198;19.646;2022-12-18T01:39:04;101701.80;;;-1.90;72.44
70338;BME280;57757;53.198;19.646;2022-12-18T01:41:33;101704.00;;;-1.90;72.22
70338;BME280;57757;53.198;19.646;2022-12-18T01:50:16;101705.19;;;-1.91;72.26
70338;BME280;57757;53.198;19.646;2022-12-18T01:52:47;101706.07;;;-1.93;72.35
70338;BME280;57757;53.198;19.646;2022-12-18T01:55:18;101707.94;;;-1.97;72.36
70338;BME280;57757;53.198;19.646;2022-12-18T01:57:47;101708.92;;;-2.01;72.32
70338;BME280;57757;53.198;19.646;2022-12-18T02:00:18;101713.58;;;-2.03;72.51
70338;BME280;57757;53.198;19.646;2022-12-18T02:02:47;101716.58;;;-2.05;72.43
70338;BME280;57757;53.198;19.646;2022-12-18T02:05:26;101718.02;;;-2.06;72.37
70338;BME280;57757;53.198;19.646;2022-12-18T02:08:07;101720.85;;;-2.11;72.26
70338;BME280;57757;53.198;19.646;2022-12-18T02:13:36;101730.26;;;-2.04;72.55
70338;BME280;57757;53.198;19.646;2022-12-18T02:18:58;101743.21;;;-1.87;72.67
70338;BME280;57757;53.198;19.646;2022-12-18T02:21:46;101740.48;;;-1.83;72.56
70338;BME280;57757;53.198;19.646;2022-12-18T02:24:34;101744.73;;;-1.84;72.47
70338;BME280;57757;53.198;19.646;2022-12-18T02:27:05;101747.27;;;-1.85;72.58
70338;BME280;57757;53.198;19.646;2022-12-18T02:29:40;101744.47;;;-1.83;72.59
70338;BME280;57757;53.198;19.646;2022-12-18T02:32:18;101744.92;;;-1.80;72.60
70338;BME280;57757;53.198;19.646;2022-12-18T02:34:49;101746.67;;;-1.80;72.47
70338;BME280;57757;53.198;19.646;2022-12-18T02:37:19;101749.61;;;-1.82;72.41
70338;BME280;57757;53.198;19.646;2022-12-18T02:39:48;101747.63;;;-1.84;72.44
70338;BME280;57757;53.198;19.646;2022-12-18T02:42:17;101755.43;;;-1.85;72.42
70338;BME280;57757;53.198;19.646;2022-12-18T02:44:48;101762.02;;;-1.86;72.36
70338;BME280;57757;53.198;19.646;2022-12-18T02:47:18;101764.41;;;-1.93;72.21
70338;BME280;57757;53.198;19.646;2022-12-18T02:50:48;101763.48;;;-1.98;72.37
70338;BME280;57757;53.198;19.646;2022-12-18T02:53:17;101766.98;;;-1.99;72.35
70338;BME280;57757;53.198;19.646;2022-12-18T02:59:01;101771.33;;;-2.07;72.29
70338;BME280;57757;53.198;19.646;2022-12-18T03:01:49;101772.11;;;-2.18;72.16
70338;BME280;57757;53.198;19.646;2022-12-18T03:04:27;101765.31;;;-2.27;72.31
70338;BME280;57757;53.198;19.646;2022-12-18T03:07:00;101767.02;;;-2.30;72.45
70338;BME280;57757;53.198;19.646;2022-12-18T03:09:40;101778.30;;;-2.33;72.43
70338;BME280;57757;53.198;19.646;2022-12-18T03:12:22;101776.54;;;-2.34;72.43
70338;BME280;57757;53.198;19.646;2022-12-18T03:18:01;101783.56;;;-2.27;72.60
70338;BME280;57757;53.198;19.646;2022-12-18T03:20:32;101786.64;;;-2.20;72.51
70338;BME280;57757;53.198;19.646;2022-12-18T03:23:09;101791.89;;;-2.18;72.50
70338;BME280;57757;53.198;19.646;2022-12-18T03:25:41;101796.22;;;-2.13;72.64
70338;BME280;57757;53.198;19.646;2022-12-18T03:28:15;101800.34;;;-2.13;72.57
70338;BME280;57757;53.198;19.646;2022-12-18T03:30:45;101805.20;;;-2.17;72.54
70338;BME280;57757;53.198;19.646;2022-12-18T03:33:32;101808.89;;;-2.25;72.40
70338;BME280;57757;53.198;19.646;2022-12-18T03:36:00;101810.13;;;-2.36;72.34
70338;BME280;57757;53.198;19.646;2022-12-18T03:38:28;101811.86;;;-2.43;72.47
70338;BME280;57757;53.198;19.646;2022-12-18T03:41:06;101809.71;;;-2.45;72.57
70338;BME280;57757;53.198;19.646;2022-12-18T03:49:01;101819.21;;;-2.29;72.98
70338;BME280;57757;53.198;19.646;2022-12-18T03:51:45;101815.14;;;-2.26;73.03
70338;BME280;57757;53.198;19.646;2022-12-18T03:54:18;101812.31;;;-2.22;73.10
70338;BME280;57757;53.198;19.646;2022-12-18T03:56:54;101813.11;;;-2.19;73.13
70338;BME280;57757;53.198;19.646;2022-12-18T03:59:23;101812.92;;;-2.16;73.09
70338;BME280;57757;53.198;19.646;2022-12-18T04:01:53;101822.05;;;-2.15;72.99
70338;BME280;57757;53.198;19.646;2022-12-18T04:04:24;101831.65;;;-2.17;72.79
70338;BME280;57757;53.198;19.646;2022-12-18T04:06:52;101833.16;;;-2.17;72.84
70338;BME280;57757;53.198;19.646;2022-12-18T04:09:21;101831.52;;;-2.16;72.77
70338;BME280;57757;53.198;19.646;2022-12-18T04:11:49;101840.12;;;-2.15;72.81
70338;BME280;57757;53.198;19.646;2022-12-18T04:14:16;101839.02;;;-2.16;72.84
70338;BME280;57757;53.198;19.646;2022-12-18T04:16:45;101841.40;;;-2.19;72.80
70338;BME280;57757;53.198;19.646;2022-12-18T04:19:12;101840.58;;;-2.25;72.80
70338;BME280;57757;53.198;19.646;2022-12-18T04:21:40;101843.52;;;-2.30;72.81
70338;BME280;57757;53.198;19.646;2022-12-18T04:24:07;101845.04;;;-2.34;72.94
70338;BME280;57757;53.198;19.646;2022-12-18T04:26:35;101848.56;;;-2.32;73.02
70338;BME280;57757;53.198;19.646;2022-12-18T04:29:04;101850.30;;;-2.28;72.95
70338;BME280;57757;53.198;19.646;2022-12-18T04:31:31;101854.69;;;-2.23;73.05
70338;BME280;57757;53.198;19.646;2022-12-18T04:33:59;101858.82;;;-2.19;73.18
70338;BME280;57757;53.198;19.646;2022-12-18T04:36:27;101860.25;;;-2.18;73.05
70338;BME280;57757;53.198;19.646;2022-12-18T04:38:55;101868.00;;;-2.19;72.98
70338;BME280;57757;53.198;19.646;2022-12-18T04:41:22;101869.00;;;-2.23;72.99
70338;BME280;57757;53.198;19.646;2022-12-18T04:43:50;101873.72;;;-2.27;72.86
70338;BME280;57757;53.198;19.646;2022-12-18T04:46:17;101881.84;;;-2.34;72.67
70338;BME280;57757;53.198;19.646;2022-12-18T04:48:46;101886.16;;;-2.42;72.50
70338;BME280;57757;53.198;19.646;2022-12-18T04:51:14;101890.41;;;-2.46;72.66
70338;BME280;57757;53.198;19.646;2022-12-18T04:53:42;101892.73;;;-2.50;72.76
70338;BME280;57757;53.198;19.646;2022-12-18T04:56:12;101897.77;;;-2.60;72.47
70338;BME280;57757;53.198;19.646;2022-12-18T04:58:42;101900.03;;;-2.68;72.62
70338;BME280;57757;53.198;19.646;2022-12-18T05:01:12;101906.38;;;-2.70;72.83
70338;BME280;57757;53.198;19.646;2022-12-18T05:03:40;101904.35;;;-2.73;72.81
70338;BME280;57757;53.198;19.646;2022-12-18T05:06:09;101905.92;;;-2.75;72.76
70338;BME280;57757;53.198;19.646;2022-12-18T05:08:37;101903.98;;;-2.76;72.74
70338;BME280;57757;53.198;19.646;2022-12-18T05:11:13;101906.72;;;-2.76;72.80
70338;BME280;57757;53.198;19.646;2022-12-18T05:13:44;101909.27;;;-2.76;72.78
70338;BME280;57757;53.198;19.646;2022-12-18T05:16:12;101909.09;;;-2.76;72.86
70338;BME280;57757;53.198;19.646;2022-12-18T05:18:41;101911.14;;;-2.76;72.99
70338;BME280;57757;53.198;19.646;2022-12-18T05:21:09;101912.10;;;-2.77;72.91
70338;BME280;57757;53.198;19.646;2022-12-18T05:23:36;101919.75;;;-2.80;72.90
70338;BME280;57757;53.198;19.646;2022-12-18T05:26:06;101927.06;;;-2.80;72.99
70338;BME280;57757;53.198;19.646;2022-12-18T05:28:35;101929.66;;;-2.82;72.73
70338;BME280;57757;53.198;19.646;2022-12-18T05:31:04;101932.53;;;-2.89;72.60
70338;BME280;57757;53.198;19.646;2022-12-18T05:33:33;101938.11;;;-2.95;72.67
70338;BME280;57757;53.198;19.646;2022-12-18T05:36:03;101937.20;;;-2.99;72.74
70338;BME280;57757;53.198;19.646;2022-12-18T05:38:33;101940.48;;;-3.01;72.81
70338;BME280;57757;53.198;19.646;2022-12-18T05:41:01;101944.70;;;-3.02;72.85
70338;BME280;57757;53.198;19.646;2022-12-18T05:43:29;101947.89;;;-3.02;72.84
70338;BME280;57757;53.198;19.646;2022-12-18T05:45:57;101949.84;;;-3.04;72.83
70338;BME280;57757;53.198;19.646;2022-12-18T05:48:24;101956.45;;;-3.05;72.74
70338;BME280;57757;53.198;19.646;2022-12-18T05:50:52;101959.05;;;-3.06;72.54
70338;BME280;57757;53.198;19.646;2022-12-18T05:53:20;101955.02;;;-3.11;72.55
70338;BME280;57757;53.198;19.646;2022-12-18T05:55:47;101959.98;;;-3.11;72.87
70338;BME280;57757;53.198;19.646;2022-12-18T05:58:15;101960.98;;;-3.14;72.65
70338;BME280;57757;53.198;19.646;2022-12-18T06:00:45;101969.50;;;-3.20;72.70
70338;BME280;57757;53.198;19.646;2022-12-18T06:03:13;101975.34;;;-3.27;72.60
70338;BME280;57757;53.198;19.646;2022-12-18T06:05:44;101975.61;;;-3.33;72.70
70338;BME280;57757;53.198;19.646;2022-12-18T06:08:12;101977.27;;;-3.40;72.65
70338;BME280;57757;53.198;19.646;2022-12-18T06:10:41;101976.49;;;-3.45;72.68
70338;BME280;57757;53.198;19.646;2022-12-18T06:13:08;101973.40;;;-3.48;72.70
70338;BME280;57757;53.198;19.646;2022-12-18T06:15:37;101973.08;;;-3.50;72.76
70338;BME280;57757;53.198;19.646;2022-12-18T06:18:04;101975.11;;;-3.53;72.76
70338;BME280;57757;53.198;19.646;2022-12-18T06:20:32;101976.27;;;-3.54;72.76
70338;BME280;57757;53.198;19.646;2022-12-18T06:23:00;101977.83;;;-3.56;72.77
70338;BME280;57757;53.198;19.646;2022-12-18T06:25:28;101984.50;;;-3.58;72.81
70338;BME280;57757;53.198;19.646;2022-12-18T06:27:55;101988.23;;;-3.61;72.73
70338;BME280;57757;53.198;19.646;2022-12-18T06:30:23;101993.86;;;-3.63;72.72
70338;BME280;57757;53.198;19.646;2022-12-18T06:32:50;101998.71;;;-3.64;72.77
70338;BME280;57757;53.198;19.646;2022-12-18T06:35:23;102002.95;;;-3.67;72.69
70338;BME280;57757;53.198;19.646;2022-12-18T06:37:51;102005.73;;;-3.72;72.78
70338;BME280;57757;53.198;19.646;2022-12-18T06:40:19;102017.61;;;-3.75;72.77
70338;BME280;57757;53.198;19.646;2022-12-18T06:42:46;102023.15;;;-3.81;72.70
70338;BME280;57757;53.198;19.646;2022-12-18T06:45:14;102028.36;;;-3.87;72.67
70338;BME280;57757;53.198;19.646;2022-12-18T06:47:41;102028.92;;;-3.92;72.69
70338;BME280;57757;53.198;19.646;2022-12-18T06:50:10;102032.80;;;-3.95;72.78
70338;BME280;57757;53.198;19.646;2022-12-18T06:52:37;102040.09;;;-3.98;72.79
70338;BME280;57757;53.198;19.646;2022-12-18T06:55:08;102048.50;;;-4.02;72.74
70338;BME280;57757;53.198;19.646;2022-12-18T06:57:35;102047.24;;;-4.05;72.63
70338;BME280;57757;53.198;19.646;2022-12-18T07:00:05;102052.82;;;-4.09;72.71
70338;BME280;57757;53.198;19.646;2022-12-18T07:02:33;102049.77;;;-4.14;72.58
70338;BME280;57757;53.198;19.646;2022-12-18T07:05:01;102051.60;;;-4.17;72.52
70338;BME280;57757;53.198;19.646;2022-12-18T07:07:36;102054.23;;;-4.18;72.42
70338;BME280;57757;53.198;19.646;2022-12-18T07:10:04;102057.77;;;-4.21;72.35
70338;BME280;57757;53.198;19.646;2022-12-18T07:12:32;102062.98;;;-4.21;72.49
70338;BME280;57757;53.198;19.646;2022-12-18T07:14:59;102065.04;;;-4.24;72.38
70338;BME280;57757;53.198;19.646;2022-12-18T07:17:27;102071.04;;;-4.28;72.50
70338;BME280;57757;53.198;19.646;2022-12-18T07:19:54;102077.07;;;-4.30;72.48
70338;BME280;57757;53.198;19.646;2022-12-18T07:22:22;102082.60;;;-4.33;72.41
70338;BME280;57757;53.198;19.646;2022-12-18T07:24:49;102089.63;;;-4.38;72.42
70338;BME280;57757;53.198;19.646;2022-12-18T07:27:17;102093.50;;;-4.43;72.36
70338;BME280;57757;53.198;19.646;2022-12-18T07:29:44;102095.38;;;-4.48;72.25
70338;BME280;57757;53.198;19.646;2022-12-18T07:32:12;102098.75;;;-4.51;72.38
70338;BME280;57757;53.198;19.646;2022-12-18T07:34:40;102101.65;;;-4.51;72.60
70338;BME280;57757;53.198;19.646;2022-12-18T07:37:08;102107.44;;;-4.51;72.49
70338;BME280;57757;53.198;19.646;2022-12-18T07:39:36;102106.90;;;-4.51;72.60
70338;BME280;57757;53.198;19.646;2022-12-18T07:42:03;102107.54;;;-4.49;72.71
70338;BME280;57757;53.198;19.646;2022-12-18T07:44:47;102108.94;;;-4.49;72.68
70338;BME280;57757;53.198;19.646;2022-12-18T07:47:15;102108.45;;;-4.49;72.72
70338;BME280;57757;53.198;19.646;2022-12-18T07:49:42;102111.71;;;-4.48;72.72
70338;BME280;57757;53.198;19.646;2022-12-18T07:52:10;102112.95;;;-4.49;72.71
70338;BME280;57757;53.198;19.646;2022-12-18T07:54:39;102115.41;;;-4.48;72.83
70338;BME280;57757;53.198;19.646;2022-12-18T07:57:08;102113.16;;;-4.44;73.01
70338;BME280;57757;53.198;19.646;2022-12-18T07:59:56;102110.93;;;-4.37;73.04
70338;BME280;57757;53.198;19.646;2022-12-18T08:02:23;102115.06;;;-4.31;73.02
70338;BME280;57757;53.198;19.646;2022-12-18T08:04:51;102115.75;;;-4.30;72.80
70338;BME280;57757;53.198;19.646;2022-12-18T08:07:18;102115.23;;;-4.30;72.96
70338;BME280;57757;53.198;19.646;2022-12-18T08:09:46;102116.60;;;-4.25;73.09
70338;BME280;57757;53.198;19.646;2022-12-18T08:12:13;102117.85;;;-4.19;73.09
70338;BME280;57757;53.198;19.646;2022-12-18T08:14:41;102125.60;;;-4.18;72.95
70338;BME280;57757;53.198;19.646;2022-12-18T08:17:08;102132.08;;;-4.18;72.97
70338;BME280;57757;53.198;19.646;2022-12-18T08:19:36;102138.38;;;-4.12;73.21
70338;BME280;57757;53.198;19.646;2022-12-18T08:22:03;102139.05;;;-4.07;73.22
70338;BME280;57757;53.198;19.646;2022-12-18T08:24:31;102134.54;;;-4.01;73.26
70338;BME280;57757;53.198;19.646;2022-12-18T08:26:58;102140.10;;;-3.97;73.19
70338;BME280;57757;53.198;19.646;2022-12-18T08:29:46;102145.44;;;-3.88;73.37
70338;BME280;57757;53.198;19.646;2022-12-18T08:32:14;102145.86;;;-3.81;73.43
70338;BME280;57757;53.198;19.646;2022-12-18T08:34:42;102146.38;;;-3.76;73.27
70338;BME280;57757;53.198;19.646;2022-12-18T08:37:09;102152.30;;;-3.72;73.14
70338;BME280;57757;53.198;19.646;2022-12-18T08:39:37;102157.27;;;-3.68;73.22
70338;BME280;57757;53.198;19.646;2022-12-18T08:42:04;102159.17;;;-3.63;73.35
70338;BME280;57757;53.198;19.646;2022-12-18T08:44:48;102169.45;;;-3.59;73.23
70338;BME280;57757;53.198;19.646;2022-12-18T08:47:15;102180.52;;;-3.54;73.22
70338;BME280;57757;53.198;19.646;2022-12-18T08:49:43;102179.47;;;-3.54;72.98
70338;BME280;57757;53.198;19.646;2022-12-18T08:52:10;102181.04;;;-3.56;72.90
70338;BME280;57757;53.198;19.646;2022-12-18T08:54:42;102182.86;;;-3.57;72.94
70338;BME280;57757;53.198;19.646;2022-12-18T08:57:10;102188.54;;;-3.56;72.92
70338;BME280;57757;53.198;19.646;2022-12-18T08:59:38;102193.48;;;-3.56;72.99
70338;BME280;57757;53.198;19.646;2022-12-18T09:02:06;102200.77;;;-3.51;73.12
70338;BME280;57757;53.198;19.646;2022-12-18T09:04:34;102206.27;;;-3.47;73.07
70338;BME280;57757;53.198;19.646;2022-12-18T09:07:01;102205.59;;;-3.42;73.16
70338;BME280;57757;53.198;19.646;2022-12-18T09:09:29;102199.04;;;-3.35;73.13
70338;BME280;57757;53.198;19.646;2022-12-18T09:11:57;102197.31;;;-3.30;73.14
70338;BME280;57757;53.198;19.646;2022-12-18T09:14:24;102197.50;;;-3.25;73.19
70338;BME280;57757;53.198;19.646;2022-12-18T09:16:52;102191.31;;;-3.18;73.14
70338;BME280;57757;53.198;19.646;2022-12-18T09:19:19;102195.81;;;-3.14;73.15
70338;BME280;57757;53.198;19.646;2022-12-18T09:21:47;102201.74;;;-3.12;73.07
70338;BME280;57757;53.198;19.646;2022-12-18T09:24:15;102202.01;;;-3.10;73.01
70338;BME280;57757;53.198;19.646;2022-12-18T09:26:43;102204.92;;;-3.08;72.90
70338;BME280;57757;53.198;19.646;2022-12-18T09:29:15;102205.89;;;-3.06;72.91
70338;BME280;57757;53.198;19.646;2022-12-18T09:31:45;102200.29;;;-3.03;72.99
70338;BME280;57757;53.198;19.646;2022-12-18T09:34:13;102201.84;;;-3.00;72.95
70338;BME280;57757;53.198;19.646;2022-12-18T09:36:41;102200.77;;;-2.98;72.93
70338;BME280;57757;53.198;19.646;2022-12-18T09:39:10;102205.95;;;-2.94;73.03
70338;BME280;57757;53.198;19.646;2022-12-18T09:41:54;102207.98;;;-2.92;73.04
70338;BME280;57757;53.198;19.646;2022-12-18T09:47:17;102203.67;;;-2.87;72.71
70338;BME280;57757;53.198;19.646;2022-12-18T09:49:49;102211.49;;;-2.90;72.55
70338;BME280;57757;53.198;19.646;2022-12-18T09:52:30;102213.86;;;-2.85;72.81
70338;BME280;57757;53.198;19.646;2022-12-18T09:57:51;102206.08;;;-2.81;72.69
70338;BME280;57757;53.198;19.646;2022-12-18T10:00:22;102195.69;;;-2.79;72.72
70338;BME280;57757;53.198;19.646;2022-12-18T10:03:00;102194.95;;;-2.74;72.66
70338;BME280;57757;53.198;19.646;2022-12-18T10:08:22;102182.52;;;-2.66;72.56
70338;BME280;57757;53.198;19.646;2022-12-18T10:10:53;102184.05;;;-2.47;72.98
70338;BME280;57757;53.198;19.646;2022-12-18T10:13:34;102185.70;;;-2.24;73.01
70338;BME280;57757;53.198;19.646;2022-12-18T10:27:17;102188.87;;;-1.54;72.56
70338;BME280;57757;53.198;19.646;2022-12-18T10:29:46;102188.87;;;-1.57;72.29
70338;BME280;57757;53.198;19.646;2022-12-18T10:32:31;102181.32;;;-1.63;72.21
70338;BME280;57757;53.198;19.646;2022-12-18T10:34:59;102181.15;;;-1.78;71.78
70338;BME280;57757;53.198;19.646;2022-12-18T10:37:29;102177.76;;;-1.95;71.68
70338;BME280;57757;53.198;19.646;2022-12-18T10:40:15;102177.59;;;-2.06;71.95
70338;BME280;57757;53.198;19.646;2022-12-18T10:43:12;102183.56;;;-2.15;72.02
70338;BME280;57757;53.198;19.646;2022-12-18T10:45:41;102182.42;;;-2.22;71.70
70338;BME280;57757;53.198;19.646;2022-12-18T10:48:25;102174.21;;;-2.37;71.52
70338;BME280;57757;53.198;19.646;2022-12-18T10:50:54;102173.44;;;-2.53;71.62
70338;BME280;57757;53.198;19.646;2022-12-18T10:53:41;102173.58;;;-2.64;71.81
70338;BME280;57757;53.198;19.646;2022-12-18T10:56:11;102180.40;;;-2.70;72.04
70338;BME280;57757;53.198;19.646;2022-12-18T10:58:39;102182.17;;;-2.79;71.65
70338;BME280;57757;53.198;19.646;2022-12-18T11:06:29;102186.39;;;-2.96;71.93
70338;BME280;57757;53.198;19.646;2022-12-18T11:09:18;102184.10;;;-2.98;72.14
70338;BME280;57757;53.198;19.646;2022-12-18T11:11:55;102180.96;;;-2.99;72.03
70338;BME280;57757;53.198;19.646;2022-12-18T11:14:31;102179.73;;;-2.97;72.29
70338;BME280;57757;53.198;19.646;2022-12-18T11:17:00;102184.59;;;-2.95;72.22
70338;BME280;57757;53.198;19.646;2022-12-18T11:19:56;102195.41;;;-2.96;72.17
70338;BME280;57757;53.198;19.646;2022-12-18T11:22:31;102199.41;;;-2.95;72.18
70338;BME280;57757;53.198;19.646;2022-12-18T11:31:29;102194.17;;;-2.89;72.51
70338;BME280;57757;53.198;19.646;2022-12-18T11:34:32;102202.25;;;-2.85;72.52
70338;BME280;57757;53.198;19.646;2022-12-18T11:37:00;102210.31;;;-2.78;72.43
70338;BME280;57757;53.198;19.646;2022-12-18T11:39:35;102205.98;;;-2.77;72.26
70338;BME280;57757;53.198;19.646;2022-12-18T11:42:34;102201.04;;;-2.77;72.45
70338;BME280;57757;53.198;19.646;2022-12-18T11:48:05;102198.40;;;-2.73;72.43
70338;BME280;57757;53.198;19.646;2022-12-18T11:53:26;102216.21;;;-2.71;72.35
70338;BME280;57757;53.198;19.646;2022-12-18T11:58:47;102227.83;;;-2.76;72.28
70338;BME280;57757;53.198;19.646;2022-12-18T12:12:40;102251.20;;;-3.03;72.32
70338;BME280;57757;53.198;19.646;2022-12-18T12:15:39;102252.09;;;-3.07;72.15
70338;BME280;57757;53.198;19.646;2022-12-18T12:26:57;102268.48;;;-3.27;72.25
70338;BME280;57757;53.198;19.646;2022-12-18T12:35:16;102271.46;;;-3.26;72.43
70338;BME280;57757;53.198;19.646;2022-12-18T12:38:06;102266.36;;;-3.23;72.60
70338;BME280;57757;53.198;19.646;2022-12-18T12:40:45;102260.83;;;-3.19;72.63
70338;BME280;57757;53.198;19.646;2022-12-18T12:46:19;102260.67;;;-3.11;72.65
70338;BME280;57757;53.198;19.646;2022-12-18T12:48:55;102262.24;;;-3.08;72.59
70338;BME280;57757;53.198;19.646;2022-12-18T12:51:41;102261.06;;;-3.05;72.51
70338;BME280;57757;53.198;19.646;2022-12-18T12:54:20;102263.69;;;-2.99;72.67
70338;BME280;57757;53.198;19.646;2022-12-18T12:57:10;102261.41;;;-2.92;72.70
70338;BME280;57757;53.198;19.646;2022-12-18T13:02:49;102256.45;;;-3.03;72.36
70338;BME280;57757;53.198;19.646;2022-12-18T13:05:33;102261.14;;;-3.07;72.50
70338;BME280;57757;53.198;19.646;2022-12-18T13:08:04;102260.42;;;-3.10;72.43
70338;BME280;57757;53.198;19.646;2022-12-18T13:10:44;102258.27;;;-3.09;72.51
70338;BME280;57757;53.198;19.646;2022-12-18T13:13:14;102253.94;;;-3.10;72.49
70338;BME280;57757;53.198;19.646;2022-12-18T13:16:07;102258.40;;;-3.09;72.49
70338;BME280;57757;53.198;19.646;2022-12-18T13:18:35;102255.34;;;-3.15;72.30
70338;BME280;57757;53.198;19.646;2022-12-18T13:21:30;102256.94;;;-3.19;72.37
70338;BME280;57757;53.198;19.646;2022-12-18T13:24:24;102260.68;;;-3.24;72.35
70338;BME280;57757;53.198;19.646;2022-12-18T13:26:53;102261.91;;;-3.31;72.35
70338;BME280;57757;53.198;19.646;2022-12-18T13:35:37;102288.67;;;-3.36;72.63
70338;BME280;57757;53.198;19.646;2022-12-18T13:46:00;102309.95;;;-3.33;72.66
70338;BME280;57757;53.198;19.646;2022-12-18T13:48:32;102313.69;;;-3.33;72.65
70338;BME280;57757;53.198;19.646;2022-12-18T13:51:09;102316.39;;;-3.31;72.76
70338;BME280;57757;53.198;19.646;2022-12-18T13:53:44;102323.08;;;-3.25;72.85
70338;BME280;57757;53.198;19.646;2022-12-18T13:56:22;102327.64;;;-3.17;72.95
70338;BME280;57757;53.198;19.646;2022-12-18T13:59:14;102328.91;;;-3.14;72.98
70338;BME280;57757;53.198;19.646;2022-12-18T14:01:47;102328.28;;;-3.16;72.77
70338;BME280;57757;53.198;19.646;2022-12-18T14:07:06;102327.84;;;-3.22;72.60
70338;BME280;57757;53.198;19.646;2022-12-18T14:09:39;102319.70;;;-3.24;72.70
70338;BME280;57757;53.198;19.646;2022-12-18T14:12:15;102319.83;;;-3.25;72.78
70338;BME280;57757;53.198;19.646;2022-12-18T14:15:00;102321.90;;;-3.22;72.83
70338;BME280;57757;53.198;19.646;2022-12-18T14:17:28;102327.51;;;-3.20;72.75
70338;BME280;57757;53.198;19.646;2022-12-18T14:19:55;102332.56;;;-3.18;72.87
70338;BME280;57757;53.198;19.646;2022-12-18T14:22:25;102342.23;;;-3.19;72.72
70338;BME280;57757;53.198;19.646;2022-12-18T14:25:15;102346.23;;;-3.22;72.65
70338;BME280;57757;53.198;19.646;2022-12-18T14:27:47;102346.99;;;-3.31;72.40
70338;BME280;57757;53.198;19.646;2022-12-18T14:30:32;102348.47;;;-3.40;72.32
70338;BME280;57757;53.198;19.646;2022-12-18T14:36:01;102356.12;;;-3.50;72.39
70338;BME280;57757;53.198;19.646;2022-12-18T14:38:37;102351.71;;;-3.52;72.53
70338;BME280;57757;53.198;19.646;2022-12-18T14:41:13;102352.86;;;-3.55;72.56
70338;BME280;57757;53.198;19.646;2022-12-18T14:43:45;102345.80;;;-3.57;72.62
70338;BME280;57757;53.198;19.646;2022-12-18T14:46:34;102342.05;;;-3.59;72.60
70338;BME280;57757;53.198;19.646;2022-12-18T14:49:16;102343.98;;;-3.63;72.54
70338;BME280;57757;53.198;19.646;2022-12-18T14:51:49;102345.59;;;-3.65;72.63
70338;BME280;57757;53.198;19.646;2022-12-18T14:54:19;102342.38;;;-3.65;72.70
70338;BME280;57757;53.198;19.646;2022-12-18T14:56:50;102337.23;;;-3.62;72.71
70338;BME280;57757;53.198;19.646;2022-12-18T14:59:23;102331.60;;;-3.58;72.98
70338;BME280;57757;53.198;19.646;2022-12-18T15:04:41;102335.21;;;-3.52;72.92
70338;BME280;57757;53.198;19.646;2022-12-18T15:07:17;102342.20;;;-3.52;72.94